Time;durP1;ratioP1;P1;durP2;ratioP2;P2;SDS_P1;SDS_P2;PMS_P1;PMS_P2;Temp;Humidity;BMP_temperature;BMP_pressure;BME280_temperature;BME280_humidity;BME280_pressure;Samples;Min_cycle;Max_cycle;Signal;HPM_P1;HPM_P2
2022/10/22 00:00:13;;;;;;;13.93;9.60;;;;;;;14.78;86.31;100547.69;5099907;27;20039;-70
2022/10/22 00:02:40;;;;;;;34.50;9.88;;;;;;;14.66;85.90;100540.66;5109498;27;20486;-70
2022/10/22 00:05:08;;;;;;;13.55;8.95;;;;;;;14.60;86.23;100534.03;5109123;27;20502;-70
2022/10/22 00:07:34;;;;;;;17.88;11.18;;;;;;;14.41;87.11;100544.19;5098900;27;20047;-70
2022/10/22 00:10:01;;;;;;;17.95;9.88;;;;;;;14.29;88.51;100552.94;5107416;27;20417;-71
2022/10/22 00:12:28;;;;;;;14.02;9.52;;;;;;;13.85;91.82;100556.03;5104752;27;20052;-71
2022/10/22 00:14:54;;;;;;;35.22;12.00;;;;;;;13.91;91.79;100560.88;5097415;27;20050;-70
2022/10/22 00:17:21;;;;;;;20.92;10.30;;;;;;;13.90;94.27;100560.97;5108604;27;20043;-70
2022/10/22 00:19:49;;;;;;;17.80;10.90;;;;;;;13.92;96.59;100559.06;5107785;27;20576;-70
2022/10/22 00:22:15;;;;;;;19.52;11.35;;;;;;;13.98;96.72;100566.56;5099156;27;20482;-71
2022/10/22 00:24:42;;;;;;;22.23;10.57;;;;;;;14.28;95.49;100556.53;5107904;27;20072;-70
2022/10/22 00:27:11;;;;;;;25.67;11.65;;;;;;;14.30;94.88;100562.53;5107160;27;20042;-70
2022/10/22 00:29:37;;;;;;;20.02;10.40;;;;;;;14.23;96.19;100565.72;5103767;27;20672;-70
2022/10/22 00:32:05;;;;;;;19.70;10.73;;;;;;;14.14;97.27;100573.31;5095044;27;20044;-70
2022/10/22 00:34:32;;;;;;;23.23;12.00;;;;;;;14.11;96.84;100592.00;5100450;27;20051;-70
2022/10/22 00:37:00;;;;;;;24.30;11.50;;;;;;;13.80;100.00;100588.88;5098471;27;20043;-70
2022/10/22 00:39:28;;;;;;;20.27;11.43;;;;;;;13.71;100.00;100569.25;5109062;27;20043;-70
2022/10/22 00:41:57;;;;;;;20.38;10.98;;;;;;;14.27;98.49;100559.25;5108977;27;20452;-70
2022/10/22 00:45:05;;;;;;;20.73;11.02;;;;;;;14.60;94.99;100552.50;5087309;27;20040;-70
2022/10/22 00:47:35;;;;;;;19.52;10.30;;;;;;;14.87;92.98;100548.81;5095698;27;20043;-70
2022/10/22 00:50:03;;;;;;;15.65;9.43;;;;;;;14.66;92.72;100558.28;5106013;27;20483;-70
2022/10/22 00:52:32;;;;;;;14.20;9.70;;;;;;;14.65;92.62;100564.50;5108986;27;20055;-70
2022/10/22 00:54:59;;;;;;;19.23;9.50;;;;;;;14.59;93.66;100563.19;5097334;27;20036;-70
2022/10/22 00:57:26;;;;;;;16.80;10.20;;;;;;;14.28;94.50;100560.97;5107656;27;20046;-70
2022/10/22 00:59:52;;;;;;;23.67;10.40;;;;;;;14.40;94.64;100554.88;5108899;27;20054;-70
2022/10/22 01:02:18;;;;;;;16.02;10.20;;;;;;;14.61;93.72;100550.69;5098121;27;20047;-70
2022/10/22 01:04:45;;;;;;;14.98;9.75;;;;;;;14.81;91.91;100562.47;5107961;27;20050;-70
2022/10/22 01:07:17;;;;;;;17.23;9.98;;;;;;;14.83;91.02;100560.56;5108715;27;20498;-70
2022/10/22 01:09:52;;;;;;;17.30;10.27;;;;;;;14.71;91.94;100557.00;5098417;27;20047;-70
2022/10/22 01:12:25;;;;;;;20.35;11.13;;;;;;;14.51;94.11;100553.16;5107480;27;20039;-70
2022/10/22 01:14:59;;;;;;;;;;;;;;;14.71;92.98;100545.63;5099018;27;20043;-70
2022/10/22 01:17:34;;;;;;;17.50;10.20;;;;;;;14.67;92.95;100544.16;5104609;27;20386;-70
2022/10/22 01:20:12;;;;;;;19.55;11.70;;;;;;;14.55;93.41;100540.59;5098200;27;20039;-70
2022/10/22 01:22:43;;;;;;;20.85;10.80;;;;;;;14.90;91.95;100541.53;5107827;27;20058;-70
2022/10/22 01:25:17;;;;;;;17.13;11.15;;;;;;;14.87;91.73;100549.69;5108406;27;20050;-70
2022/10/22 01:27:57;;;;;;;18.50;10.95;;;;;;;14.84;91.91;100551.69;5108193;27;20066;-70
2022/10/22 01:30:25;;;;;;;23.45;10.35;;;;;;;14.80;91.63;100552.88;5107688;27;20071;-71
2022/10/22 01:32:56;;;;;;;19.15;10.70;;;;;;;14.95;90.23;100551.75;5106498;27;20067;-70
2022/10/22 01:35:26;;;;;;;17.95;10.43;;;;;;;15.19;89.87;100547.31;5111319;27;20095;-70
2022/10/22 01:37:57;;;;;;;21.27;9.88;;;;;;;15.26;89.19;100537.97;5102078;27;20099;-70
2022/10/22 01:40:24;;;;;;;15.27;8.77;;;;;;;15.48;88.42;100542.53;5111733;27;20678;-70
2022/10/22 01:42:58;;;;;;;15.23;10.13;;;;;;;15.32;88.16;100540.19;5110117;27;20073;-70
2022/10/22 01:45:28;;;;;;;15.38;9.20;;;;;;;15.30;88.06;100542.06;5101490;27;20043;-70
2022/10/22 01:48:05;;;;;;;15.63;9.27;;;;;;;15.24;87.71;100542.53;5110584;27;20070;-70
2022/10/22 01:50:46;;;;;;;12.48;8.88;;;;;;;15.18;87.89;100545.66;5102253;27;20039;-70
2022/10/22 01:53:22;;;;;;;12.45;8.85;;;;;;;15.35;nan;100539.94;5112446;27;20046;-71
2022/10/22 01:56:03;;;;;;;18.52;8.55;;;;;;;15.27;87.07;100530.91;5092271;27;20048;-71
2022/10/22 01:58:39;;;;;;;15.18;8.85;;;;;;;15.37;86.80;100540.66;5111262;27;20054;-70
2022/10/22 02:01:17;;;;;;;14.73;8.73;;;;;;;15.40;86.33;100540.47;5101691;27;20043;-70
2022/10/22 02:03:51;;;;;;;13.55;8.27;;;;;;;15.29;85.99;100540.41;5110927;27;20112;-70
2022/10/22 02:06:21;;;;;;;13.10;7.90;;;;;;;15.38;85.80;100547.63;5100153;27;20050;-70
2022/10/22 02:08:49;;;;;;;13.93;8.82;;;;;;;15.52;84.81;100542.19;5109812;27;20054;-70
2022/10/22 02:11:16;;;;;;;11.82;8.32;;;;;;;15.61;84.21;100550.38;5111803;27;20070;-70
2022/10/22 02:13:46;;;;;;;14.35;9.25;;;;;;;15.47;83.92;100541.69;5101090;27;20067;-71
2022/10/22 02:16:18;;;;;;;16.75;9.75;;;;;;;15.87;82.63;100546.63;5111491;27;20043;-71
2022/10/22 02:18:47;;;;;;;20.08;10.07;;;;;;;15.79;82.80;100549.84;5109956;27;20491;-71
2022/10/22 02:21:14;;;;;;;19.05;9.65;;;;;;;15.63;83.40;100548.50;5110980;27;20058;-71
2022/10/22 02:23:40;;;;;;;17.95;9.48;;;;;;;15.42;84.29;100550.91;5105437;27;20043;-70
2022/10/22 02:26:16;;;;;;;15.45;9.40;;;;;;;14.99;86.67;100542.66;5102019;27;20445;-71
2022/10/22 02:28:48;;;;;;;15.88;9.38;;;;;;;14.85;88.11;100535.75;5121524;27;20108;-71
2022/10/22 02:31:22;;;;;;;14.52;9.32;;;;;;;14.95;88.21;100541.19;5123096;27;20043;-70
2022/10/22 02:33:53;;;;;;;16.48;9.93;;;;;;;14.87;88.25;100533.00;5111707;27;20162;-71
2022/10/22 02:36:21;;;;;;;16.17;9.07;;;;;;;15.13;87.62;100531.09;5111068;27;20047;-70
2022/10/22 02:38:51;;;;;;;13.63;8.98;;;;;;;15.29;86.69;100529.00;5087700;27;20047;-71
2022/10/22 02:41:19;;;;;;;15.55;8.75;;;;;;;15.39;85.95;100530.00;5090503;28;20047;-71
2022/10/22 02:43:53;;;;;;;13.95;9.98;;;;;;;15.36;86.39;100528.44;5090748;27;20066;-71
2022/10/22 02:46:20;;;;;;;15.05;8.63;;;;;;;15.30;85.80;100535.97;5097031;27;20042;-71
2022/10/22 02:48:47;;;;;;;15.20;9.27;;;;;;;15.29;85.52;100534.28;5110072;27;20043;-71
2022/10/22 02:51:14;;;;;;;14.48;9.23;;;;;;;15.04;86.34;100536.06;5110778;27;20074;-71
2022/10/22 02:53:40;;;;;;;13.38;8.88;;;;;;;15.02;86.75;100532.72;5096596;27;20058;-71
2022/10/22 02:56:07;;;;;;;12.15;8.55;;;;;;;15.07;86.53;100530.59;5110279;27;20066;-71
2022/10/22 02:58:34;;;;;;;15.63;9.23;;;;;;;15.09;86.71;100541.88;5111137;27;20050;-71
2022/10/22 03:01:00;;;;;;;19.40;9.35;;;;;;;14.85;86.94;100553.38;5100143;27;20699;-72
2022/10/22 03:03:28;;;;;;;26.95;9.63;;;;;;;14.81;87.63;100549.28;5128848;27;20059;-70
2022/10/22 03:05:54;;;;;;;16.25;9.60;;;;;;;14.56;88.87;100556.28;5110092;27;20331;-71
2022/10/22 03:08:21;;;;;;;18.02;9.95;;;;;;;14.78;88.17;100550.31;5099255;27;20043;-71
2022/10/22 03:10:47;;;;;;;19.95;11.20;;;;;;;14.67;90.43;100563.44;5110232;27;20047;-71
2022/10/22 03:13:14;;;;;;;28.95;11.23;;;;;;;14.69;91.01;100553.63;5110739;27;20119;-71
2022/10/22 03:15:40;;;;;;;24.90;12.55;;;;;;;14.87;90.03;100554.09;5099552;27;20047;-71
2022/10/22 03:18:07;;;;;;;21.33;10.40;;;;;;;15.08;88.79;100552.53;5109740;27;20054;-71
2022/10/22 03:20:34;;;;;;;18.80;10.10;;;;;;;14.72;89.55;100566.63;5109363;27;20047;-71
2022/10/22 03:23:02;;;;;;;20.55;10.23;;;;;;;14.34;91.47;100566.66;5099762;27;20055;-70
2022/10/22 03:25:29;;;;;;;20.98;10.90;;;;;;;14.59;90.90;100568.44;5109935;27;20051;-71
2022/10/22 03:28:01;;;;;;;30.98;11.15;;;;;;;14.92;89.79;100562.56;5109031;27;20670;-71
2022/10/22 03:30:27;;;;;;;17.08;9.90;;;;;;;15.17;88.05;100566.88;5106911;27;20071;-71
2022/10/22 03:32:54;;;;;;;19.10;10.63;;;;;;;15.19;87.23;100571.09;5129605;27;20043;-72
2022/10/22 03:35:20;;;;;;;23.20;11.40;;;;;;;15.30;87.05;100572.97;5113252;27;20043;-71
2022/10/22 03:37:48;;;;;;;21.52;12.00;;;;;;;15.40;86.73;100572.16;5099369;27;20368;-71
2022/10/22 03:40:15;;;;;;;19.90;10.73;;;;;;;15.42;86.38;100567.59;5108014;27;20048;-71
2022/10/22 03:42:42;;;;;;;20.25;11.07;;;;;;;15.34;86.88;100566.47;5110613;27;20474;-72
2022/10/22 03:45:10;;;;;;;18.92;10.57;;;;;;;15.29;86.99;100580.03;5099363;27;20040;-71
2022/10/22 03:47:36;;;;;;;15.45;9.82;;;;;;;15.35;86.96;100563.72;5108160;27;20050;-71
2022/10/22 03:50:04;;;;;;;16.35;9.70;;;;;;;15.31;86.24;100574.63;5109200;27;20131;-71
2022/10/22 03:52:35;;;;;;;16.35;9.50;;;;;;;15.22;86.52;100570.88;5098497;27;20074;-72
2022/10/22 03:55:04;;;;;;;16.20;9.77;;;;;;;14.99;87.09;100582.28;5107913;27;20050;-71
2022/10/22 03:57:31;;;;;;;19.92;10.18;;;;;;;14.82;88.30;100580.00;5091072;27;20043;-71
2022/10/22 03:59:57;;;;;;;20.45;9.88;;;;;;;14.88;87.62;100582.19;5109433;27;20050;-71
2022/10/22 04:02:23;;;;;;;16.75;9.82;;;;;;;14.93;87.94;100586.19;5118125;27;20083;-71
2022/10/22 04:04:50;;;;;;;19.50;11.00;;;;;;;15.01;87.22;100583.84;5099014;27;20053;-71
2022/10/22 04:07:16;;;;;;;19.83;11.30;;;;;;;14.90;88.29;100585.56;5108933;27;20464;-72
2022/10/22 04:09:43;;;;;;;17.33;9.98;;;;;;;14.87;88.47;100585.78;5104523;27;20509;-72
2022/10/22 04:12:10;;;;;;;20.33;10.82;;;;;;;14.92;88.75;100575.75;5107684;27;20054;-71
2022/10/22 04:14:37;;;;;;;18.40;11.48;;;;;;;14.93;88.83;100580.91;5108901;27;20050;-71
2022/10/22 04:17:03;;;;;;;28.00;12.85;;;;;;;14.69;91.45;100580.03;5108630;27;20039;-71
2022/10/22 04:19:30;;;;;;;21.23;12.52;;;;;;;14.63;92.78;100585.75;5109345;27;20436;-71
2022/10/22 04:21:58;;;;;;;26.63;13.00;;;;;;;14.85;91.34;100587.72;5104333;27;20051;-72
2022/10/22 04:24:24;;;;;;;26.67;13.07;;;;;;;14.90;91.37;100590.84;5107570;27;20077;-71
2022/10/22 04:26:53;;;;;;;28.15;14.15;;;;;;;14.99;91.39;100592.84;5108638;27;20426;-72
2022/10/22 04:29:21;;;;;;;27.20;13.15;;;;;;;15.29;89.52;100589.75;5108488;27;20058;-71
2022/10/22 04:31:48;;;;;;;29.42;13.85;;;;;;;15.43;88.46;100598.34;5107634;27;20039;-71
2022/10/22 04:34:14;;;;;;;27.23;13.65;;;;;;;15.20;89.15;100599.19;5098336;27;20043;-72
2022/10/22 04:36:40;;;;;;;26.90;13.95;;;;;;;15.08;90.25;100602.72;5108994;27;20051;-71
2022/10/22 04:39:07;;;;;;;29.83;12.95;;;;;;;14.85;92.04;100599.13;5107917;27;20510;-71
2022/10/22 04:41:35;;;;;;;24.83;13.27;;;;;;;14.90;90.98;100604.03;5106780;27;20494;-72
2022/10/22 04:44:02;;;;;;;22.50;13.23;;;;;;;15.17;89.99;100594.13;5108061;27;20407;-72
2022/10/22 04:46:33;;;;;;;24.45;13.00;;;;;;;15.49;88.37;100600.56;5106438;27;20051;-72
2022/10/22 04:49:02;;;;;;;25.92;13.52;;;;;;;15.66;nan;100594.03;5085914;27;20053;-71
2022/10/22 04:51:29;;;;;;;20.27;12.05;;;;;;;14.80;90.82;100605.66;5098527;27;20043;-71
2022/10/22 04:53:55;;;;;;;32.40;14.65;;;;;;;14.87;90.77;100604.25;5104276;27;20039;-71
2022/10/22 04:56:24;;;;;;;30.05;15.02;;;;;;;14.29;94.57;100610.13;5097429;27;20039;-71
2022/10/22 04:58:52;;;;;;;29.67;14.88;;;;;;;14.12;95.81;100613.91;5108195;27;20590;-71
2022/10/22 05:01:21;;;;;;;29.15;15.13;;;;;;;13.98;96.95;100606.94;5107657;27;20096;-71
2022/10/22 05:03:50;;;;;;;28.45;14.75;;;;;;;13.99;98.44;100608.63;5095164;27;20513;-71
2022/10/22 05:06:17;;;;;;;27.95;13.90;;;;;;;14.39;96.96;100600.66;5105542;27;20039;-71
2022/10/22 05:08:44;;;;;;;30.05;13.68;;;;;;;14.82;93.07;100615.16;5108120;27;20043;-71
2022/10/22 05:11:12;;;;;;;29.17;14.30;;;;;;;14.90;92.09;100610.16;5096678;27;20066;-71
2022/10/22 05:13:38;;;;;;;30.95;15.18;;;;;;;14.23;95.73;100610.56;5107063;27;20039;-71
2022/10/22 05:16:05;;;;;;;29.85;14.55;;;;;;;14.36;95.94;100616.69;5107674;27;20058;-71
2022/10/22 05:18:34;;;;;;;30.48;15.50;;;;;;;13.81;99.59;100630.13;5097435;27;20055;-71
2022/10/22 05:21:02;;;;;;;34.08;15.43;;;;;;;13.91;99.31;100636.47;5107007;27;20047;-71
2022/10/22 05:23:28;;;;;;;30.63;15.20;;;;;;;13.48;100.00;100633.19;5107586;27;20491;-71
2022/10/22 05:25:55;;;;;;;31.90;15.05;;;;;;;13.77;100.00;100623.34;5096848;27;20487;-71
2022/10/22 05:28:21;;;;;;;32.85;14.75;;;;;;;13.88;100.00;100612.94;5107676;27;20050;-71
2022/10/22 05:30:53;;;;;;;31.27;15.15;;;;;;;14.38;97.49;100615.63;5108032;27;20692;-71
2022/10/22 05:33:21;;;;;;;31.08;14.93;;;;;;;14.69;94.78;100616.13;5094363;27;20047;-71
2022/10/22 05:35:47;;;;;;;28.85;14.38;;;;;;;15.04;92.23;100625.84;5108233;27;20043;-71
2022/10/22 05:38:15;;;;;;;32.30;14.18;;;;;;;14.90;93.01;100628.66;5108251;27;20486;-71
2022/10/22 05:40:42;;;;;;;29.45;14.98;;;;;;;14.70;94.22;100623.94;5104467;27;20086;-71
2022/10/22 05:43:08;;;;;;;29.75;14.20;;;;;;;14.94;92.80;100616.06;5106588;27;20044;-71
2022/10/22 05:45:36;;;;;;;55.38;14.65;;;;;;;14.84;91.64;100618.53;5107729;27;20055;-71
2022/10/22 05:48:02;;;;;;;30.52;12.68;;;;;;;14.79;91.00;100610.09;5104480;27;20050;-71
2022/10/22 05:50:29;;;;;;;42.88;13.95;;;;;;;14.78;91.64;100612.84;5116463;27;20050;-71
2022/10/22 05:52:55;;;;;;;23.63;11.15;;;;;;;15.05;90.12;100613.50;5108273;27;20532;-71
2022/10/22 05:55:23;;;;;;;23.55;12.02;;;;;;;14.93;89.08;100609.09;5096648;27;20042;-71
2022/10/22 05:57:50;;;;;;;26.67;12.60;;;;;;;15.14;88.82;100617.28;5103154;27;20050;-72
2022/10/22 06:00:17;;;;;;;24.08;11.52;;;;;;;15.12;88.13;100627.94;5107006;27;20047;-72
2022/10/22 06:02:43;;;;;;;21.77;11.63;;;;;;;14.83;88.42;100631.84;5099530;27;20509;-71
2022/10/22 06:05:10;;;;;;;29.95;12.30;;;;;;;15.04;87.80;100631.13;5103399;27;20100;-71
2022/10/22 06:07:36;;;;;;;24.27;11.77;;;;;;;14.61;90.04;100633.34;5108078;27;20047;-71
2022/10/22 06:10:03;;;;;;;22.38;11.60;;;;;;;14.85;88.99;100640.50;5096632;27;20039;-71
2022/10/22 06:12:31;;;;;;;27.88;12.00;;;;;;;14.93;87.85;100636.34;5105990;27;20059;-71
2022/10/22 06:14:57;;;;;;;23.80;12.50;;;;;;;14.20;92.56;100645.88;5107460;27;20039;-71
2022/10/22 06:17:24;;;;;;;30.42;14.32;;;;;;;13.87;96.88;100651.63;5098251;27;20131;-71
2022/10/22 06:19:50;;;;;;;29.35;14.27;;;;;;;13.89;97.38;100654.19;5107216;27;20050;-71
2022/10/22 06:22:16;;;;;;;34.47;14.93;;;;;;;14.58;94.61;100652.03;5097508;27;20044;-71
2022/10/22 06:24:43;;;;;;;33.22;14.32;;;;;;;14.31;95.41;100653.91;5098591;27;20058;-71
2022/10/22 06:27:09;;;;;;;36.30;14.95;;;;;;;14.34;97.17;100656.34;5110430;27;20435;-71
2022/10/22 06:29:37;;;;;;;33.50;14.93;;;;;;;14.34;97.27;100651.06;5111871;27;20054;-71
2022/10/22 06:32:04;;;;;;;30.70;13.95;;;;;;;14.64;95.12;100656.03;5098739;27;20047;-71
2022/10/22 06:34:30;;;;;;;22.33;12.30;;;;;;;14.76;93.43;100660.47;5109378;27;20058;-71
2022/10/22 06:36:56;;;;;;;25.75;13.25;;;;;;;15.21;90.74;100668.72;5110398;27;20096;-71
2022/10/22 06:39:23;;;;;;;27.70;13.50;;;;;;;15.28;90.32;100676.09;5099740;27;20043;-70
2022/10/22 06:41:49;;;;;;;29.80;13.98;;;;;;;15.45;90.06;100673.06;5109952;27;20450;-70
2022/10/22 06:44:17;;;;;;;34.63;14.77;;;;;;;14.99;92.23;100682.59;5110732;27;20147;-71
2022/10/22 06:46:45;;;;;;;33.50;13.85;;;;;;;14.80;95.06;100685.69;5101515;27;20055;-70
2022/10/22 06:49:13;;;;;;;31.65;14.98;;;;;;;14.80;95.67;100695.41;5109990;27;20494;-70
2022/10/22 06:51:40;;;;;;;30.20;14.07;;;;;;;14.97;94.58;100697.69;5110787;27;20104;-71
2022/10/22 06:54:06;;;;;;;30.33;15.20;;;;;;;14.90;95.35;100701.72;5099960;27;20410;-70
2022/10/22 06:56:33;;;;;;;31.67;14.15;;;;;;;14.71;95.97;100699.50;5103551;27;20044;-70
2022/10/22 06:58:59;;;;;;;29.90;13.88;;;;;;;14.72;96.29;100708.28;5110210;27;20043;-70
2022/10/22 07:01:27;;;;;;;29.92;13.70;;;;;;;14.96;94.37;100717.16;5099957;27;20039;-70
2022/10/22 07:03:55;;;;;;;27.92;13.63;;;;;;;14.44;97.46;100712.84;5106472;27;20039;-70
2022/10/22 07:06:24;;;;;;;27.33;13.55;;;;;;;14.23;100.00;100716.06;5093204;27;20531;-70
2022/10/22 07:08:51;;;;;;;25.35;13.32;;;;;;;14.13;100.00;100726.34;5100593;27;20055;-70
2022/10/22 07:11:19;;;;;;;26.67;12.82;;;;;;;13.93;100.00;100724.19;5110256;27;20047;-70
2022/10/22 07:13:46;;;;;;;26.48;13.30;;;;;;;13.93;100.00;100727.66;5102687;27;20501;-70
2022/10/22 07:16:13;;;;;;;27.25;13.52;;;;;;;13.94;100.00;100739.06;5091816;27;20054;-70
2022/10/22 07:18:41;;;;;;;27.88;12.88;;;;;;;14.14;100.00;100730.69;5110863;27;20460;-70
2022/10/22 07:21:10;;;;;;;29.77;13.75;;;;;;;14.10;100.00;100731.84;5109189;27;20411;-66
2022/10/22 07:23:37;;;;;;;23.52;13.57;;;;;;;14.27;100.00;100739.44;5106526;27;20052;-65
2022/10/22 07:26:06;;;;;;;23.23;13.00;;;;;;;14.01;100.00;100748.25;5108846;27;20043;-65
2022/10/22 07:28:32;;;;;;;28.73;13.00;;;;;;;14.36;100.00;100743.31;5107071;27;20051;-65
2022/10/22 07:30:59;;;;;;;20.58;12.65;;;;;;;14.78;98.03;100739.56;5108436;27;20048;-65
2022/10/22 07:33:25;;;;;;;19.58;12.10;;;;;;;15.17;95.30;100747.31;5107876;27;20043;-65
2022/10/22 07:35:58;;;;;;;21.98;12.13;;;;;;;15.51;92.83;100745.81;5102313;27;20173;-65
2022/10/22 07:38:26;;;;;;;21.60;12.23;;;;;;;15.65;91.98;100748.28;5108860;27;20066;-65
2022/10/22 07:40:53;;;;;;;21.63;12.43;;;;;;;15.69;91.00;100756.84;5108306;27;20047;-65
2022/10/22 07:43:19;;;;;;;20.35;12.32;;;;;;;15.93;90.29;100750.59;5099122;27;20043;-65
2022/10/22 07:45:46;;;;;;;19.90;11.50;;;;;;;16.03;89.55;100758.72;5110108;27;20035;-65
2022/10/22 07:48:12;;;;;;;20.42;11.15;;;;;;;16.04;89.12;100765.66;5108070;27;20039;-65
2022/10/22 07:50:39;;;;;;;20.77;11.57;;;;;;;16.18;88.79;100767.31;5081418;27;20103;-65
2022/10/22 07:53:05;;;;;;;20.05;11.00;;;;;;;16.30;87.90;100764.56;5107061;27;20046;-65
2022/10/22 07:55:33;;;;;;;18.30;11.27;;;;;;;16.39;87.55;100769.19;5104806;27;20046;-65
2022/10/22 07:58:00;;;;;;;18.05;11.27;;;;;;;16.26;88.01;100776.34;5098795;27;20068;-65
2022/10/22 08:00:27;;;;;;;16.58;10.85;;;;;;;16.41;87.54;100775.19;5109576;27;20460;-65
2022/10/22 08:02:53;;;;;;;17.67;11.10;;;;;;;16.39;87.30;100779.78;5106406;27;20047;-65
2022/10/22 08:05:19;;;;;;;21.35;11.10;;;;;;;16.61;87.05;100776.38;5098841;27;20510;-65
2022/10/22 08:07:46;;;;;;;15.52;10.57;;;;;;;16.47;87.14;100782.69;5109401;27;20054;-65
2022/10/22 08:10:13;;;;;;;17.80;10.93;;;;;;;16.46;88.40;100775.72;5107411;27;20075;-65
2022/10/22 08:12:41;;;;;;;20.73;11.82;;;;;;;16.74;86.96;100779.75;5095126;27;20051;-65
2022/10/22 08:15:09;;;;;;;19.25;11.38;;;;;;;16.18;89.59;100785.84;5108885;27;20051;-65
2022/10/22 08:17:35;;;;;;;18.73;11.15;;;;;;;15.72;92.74;100783.91;5108210;27;20060;-66
2022/10/22 08:20:02;;;;;;;20.33;11.40;;;;;;;15.73;93.84;100790.03;5098877;27;20043;-65
2022/10/22 08:22:28;;;;;;;17.45;11.38;;;;;;;16.07;92.67;100786.63;5109071;27;20051;-65
2022/10/22 08:24:55;;;;;;;18.48;12.00;;;;;;;15.90;93.84;100795.78;5107278;27;20042;-65
2022/10/22 08:27:21;;;;;;;18.88;11.80;;;;;;;15.71;94.93;100792.78;5100011;27;20050;-65
2022/10/22 08:29:49;;;;;;;20.17;12.23;;;;;;;15.78;94.73;100801.13;5108459;27;20051;-65
2022/10/22 08:32:15;;;;;;;17.13;12.00;;;;;;;15.65;95.29;100795.88;5106645;27;20043;-65
2022/10/22 08:34:42;;;;;;;17.50;11.27;;;;;;;15.73;95.79;100796.16;5104191;27;20449;-65
2022/10/22 08:37:09;;;;;;;19.55;11.90;;;;;;;15.54;96.73;100794.00;5108909;27;20047;-65
2022/10/22 08:39:35;;;;;;;19.27;11.35;;;;;;;15.56;97.95;100802.66;5107203;27;20080;-65
2022/10/22 08:42:19;;;;;;;18.88;11.48;;;;;;;16.04;95.14;100808.00;5107307;27;20460;-65
2022/10/22 08:45:03;;;;;;;19.60;11.82;;;;;;;16.19;93.57;100804.22;5108467;27;20046;-65
2022/10/22 08:47:47;;;;;;;15.00;9.65;;;;;;;16.40;92.97;100804.44;5098734;27;20046;-65
2022/10/22 08:50:19;;;;;;;17.98;10.32;;;;;;;16.87;90.57;100814.09;5107499;27;20047;-65
2022/10/22 08:52:51;;;;;;;15.57;10.43;;;;;;;17.25;88.49;100811.16;5096734;27;20046;-65
2022/10/22 08:55:18;;;;;;;18.10;9.82;;;;;;;17.53;86.96;100818.59;5102648;27;20054;-65
2022/10/22 08:57:51;;;;;;;15.48;9.95;;;;;;;17.61;86.44;100818.03;5107973;27;20050;-66
2022/10/22 09:00:21;;;;;;;16.90;9.43;;;;;;;17.51;87.08;100815.25;5107631;27;20407;-65
2022/10/22 09:03:02;;;;;;;20.92;9.63;;;;;;;17.64;86.47;100820.44;5106679;27;20047;-65
2022/10/22 09:05:39;;;;;;;16.88;10.00;;;;;;;17.97;86.36;100818.56;5100980;27;21951;-65
2022/10/22 09:08:10;;;;;;;14.63;9.40;;;;;;;18.67;84.35;100817.22;5107661;27;20050;-66
2022/10/22 09:10:40;;;;;;;20.05;10.07;;;;;;;19.82;82.99;100817.81;5095621;27;20039;-65
2022/10/22 09:13:09;;;;;;;10.77;8.00;;;;;;;20.27;78.20;100819.03;5106628;27;20046;-65
2022/10/22 09:15:38;;;;;;;15.63;7.47;;;;;;;19.72;79.15;100822.28;5107971;27;20498;-65
2022/10/22 09:18:16;;;;;;;13.10;7.40;;;;;;;20.80;76.62;100818.63;5102495;27;20081;-65
2022/10/22 09:20:48;;;;;;;10.38;7.18;;;;;;;21.11;74.81;100824.59;5107309;27;20043;-66
2022/10/22 09:23:20;;;;;;;9.00;6.85;;;;;;;;;;5097155;27;20043;-66
2022/10/22 09:25:48;;;;;;;8.80;6.15;;;;;;;23.09;67.37;100820.06;5106477;27;20126;-66
2022/10/22 09:28:15;;;;;;;10.88;5.10;;;;;;;23.97;63.33;100825.00;5104543;27;20047;-66
2022/10/22 09:30:44;;;;;;;6.85;5.18;;;;;;;24.54;61.03;100828.63;5109009;27;20052;-66
2022/10/22 09:33:14;;;;;;;8.95;5.40;;;;;;;24.58;58.27;100827.28;5107777;27;20042;-66
2022/10/22 09:35:50;;;;;;;16.88;5.82;;;;;;;24.88;58.08;100831.16;5095397;27;20502;-66
2022/10/22 09:38:20;;;;;;;8.10;5.50;;;;;;;25.17;57.42;100833.28;5106970;27;20035;-66
2022/10/22 09:40:49;;;;;;;8.13;4.78;;;;;;;25.06;57.15;100822.91;5107679;27;20097;-66
2022/10/22 09:43:16;;;;;;;8.63;5.07;;;;;;;24.70;58.03;100833.16;5093708;27;20134;-66
2022/10/22 09:45:45;;;;;;;10.13;4.63;;;;;;;24.89;56.13;100827.47;5106692;27;20059;-66
2022/10/22 09:48:20;;;;;;;9.27;4.65;;;;;;;24.66;56.05;100827.28;5108096;27;20510;-66
2022/10/22 09:50:47;;;;;;;12.77;4.72;;;;;;;24.95;57.49;100832.16;5107437;27;20110;-66
2022/10/22 09:53:18;;;;;;;9.73;4.50;;;;;;;25.62;55.67;100840.75;5108921;27;20058;-66
2022/10/22 09:55:50;;;;;;;7.20;4.15;;;;;;;26.02;55.53;100837.84;5099968;27;20050;-66
2022/10/22 09:58:18;;;;;;;6.88;4.00;;;;;;;26.40;50.74;100848.75;5109058;27;20039;-66
2022/10/22 10:00:48;;;;;;;4.72;4.00;;;;;;;26.47;51.26;100847.84;5111614;27;20066;-66
2022/10/22 10:03:17;;;;;;;7.70;4.22;;;;;;;27.09;52.43;100848.50;5118231;27;20059;-67
2022/10/22 10:05:47;;;;;;;6.60;3.75;;;;;;;27.24;47.20;100853.91;5125953;27;20578;-67
2022/10/22 10:08:15;;;;;;;7.75;3.75;;;;;;;26.77;49.29;100851.47;5120078;27;20038;-67
2022/10/22 10:10:46;;;;;;;7.13;3.40;;;;;;;26.78;49.84;100841.56;5111864;27;20051;-67
2022/10/22 10:13:38;;;;;;;7.75;3.28;;;;;;;27.22;47.42;100845.19;5112187;27;20593;-67
2022/10/22 10:16:15;;;;;;;6.28;2.35;;;;;;;27.17;46.91;100852.13;5110230;27;20135;-67
2022/10/22 10:18:56;;;;;;;5.85;2.30;;;;;;;27.22;47.91;100845.19;5101130;27;20050;-67
2022/10/22 10:21:33;;;;;;;13.47;2.63;;;;;;;27.55;47.26;100833.06;5119353;27;20035;-67
2022/10/22 10:24:08;;;;;;;5.35;2.47;;;;;;;27.91;45.63;100837.66;5109488;27;20054;-67
2022/10/22 10:26:39;;;;;;;4.25;2.42;;;;;;;28.12;46.30;100840.44;5110830;27;20047;-67
2022/10/22 10:29:18;;;;;;;9.88;2.78;;;;;;;28.17;47.43;100832.59;5108199;27;20040;-67
2022/10/22 10:31:59;;;;;;;9.02;2.50;;;;;;;28.40;45.25;100833.25;5089982;27;20044;-67
2022/10/22 10:34:33;;;;;;;6.18;2.53;;;;;;;28.12;45.48;100828.81;5110446;27;20038;-67
2022/10/22 10:37:09;;;;;;;10.95;2.90;;;;;;;27.88;45.06;100830.78;5116692;27;20135;-67
2022/10/22 10:39:48;;;;;;;7.78;2.78;;;;;;;27.94;44.83;100843.50;5110493;27;20469;-67
2022/10/22 10:42:23;;;;;;;6.25;2.90;;;;;;;27.27;44.55;100845.47;5110883;27;20043;-67
2022/10/22 10:45:03;;;;;;;9.20;2.50;;;;;;;27.40;47.42;100834.06;5110153;27;20054;-67
2022/10/22 10:47:53;;;;;;;5.18;2.08;;;;;;;27.45;45.17;100832.53;5110663;27;20122;-67
2022/10/22 10:50:26;;;;;;;8.52;2.20;;;;;;;27.17;47.74;100836.81;5087791;27;20044;-67
2022/10/22 10:53:03;;;;;;;6.80;1.95;;;;;;;27.18;46.17;100840.34;5103838;27;20047;-67
2022/10/22 10:55:32;;;;;;;5.82;1.83;;;;;;;27.40;47.19;100834.06;5100001;27;20554;-67
2022/10/22 10:58:09;;;;;;;6.35;2.20;;;;;;;27.43;46.15;100839.06;5111124;27;20045;-67
2022/10/22 11:00:43;;;;;;;4.78;2.42;;;;;;;27.99;45.60;100834.84;5111008;27;20563;-67
2022/10/22 11:03:40;;;;;;;6.93;1.90;;;;;;;27.65;45.12;100838.16;5110409;27;20040;-67
2022/10/22 11:06:09;;;;;;;5.75;1.50;;;;;;;27.76;44.30;100845.75;5095353;27;20043;-67
2022/10/22 11:08:40;;;;;;;4.22;1.50;;;;;;;28.05;45.19;100842.16;5109803;27;20055;-67
2022/10/22 11:11:11;;;;;;;4.72;2.13;;;;;;;27.74;43.92;100847.81;5106511;27;20039;-67
2022/10/22 11:13:42;;;;;;;4.95;1.88;;;;;;;27.53;44.19;100839.66;5110362;27;20054;-67
2022/10/22 11:16:17;;;;;;;6.32;1.90;;;;;;;27.48;45.85;100845.59;5109735;27;20510;-67
2022/10/22 11:18:49;;;;;;;8.02;1.80;;;;;;;27.32;46.81;100839.53;5099035;27;20100;-67
2022/10/22 11:21:23;;;;;;;10.27;1.73;;;;;;;27.33;47.56;100839.34;5109374;27;20042;-67
2022/10/22 11:23:55;;;;;;;4.20;1.85;;;;;;;27.52;44.17;100843.38;5092685;27;20047;-67